createdAt,value
2023-03-27T00:00:27.807Z,5.80
2023-03-27T00:02:58.170Z,3.30
2023-03-27T00:05:29.587Z,4.10
2023-03-27T00:07:58.377Z,4.40
2023-03-27T00:10:26.758Z,3.60
2023-03-27T00:12:59.134Z,3.80
2023-03-27T00:15:28.225Z,5.40
2023-03-27T00:17:59.003Z,5.00
2023-03-27T00:20:31.357Z,4.70
2023-03-27T00:23:02.798Z,3.10
2023-03-27T00:25:31.473Z,3.40
2023-03-27T00:28:09.387Z,3.70
2023-03-27T00:30:41.580Z,3.40
2023-03-27T00:33:11.879Z,5.10
2023-03-27T00:35:44.962Z,3.50
2023-03-27T00:38:14.280Z,3.90
2023-03-27T00:40:46.777Z,4.40
2023-03-27T00:43:34.147Z,3.50
2023-03-27T00:46:08.347Z,4.70
2023-03-27T00:48:37.305Z,3.50
2023-03-27T00:51:06.196Z,4.50
2023-03-27T00:53:34.664Z,4.50
2023-03-27T00:56:04.675Z,5.00
2023-03-27T01:01:03.091Z,4.50
2023-03-27T01:06:02.401Z,2.90
2023-03-27T01:08:33.801Z,3.70
2023-03-27T01:11:08.596Z,3.70
2023-03-27T01:13:39.830Z,2.90
2023-03-27T01:16:46.115Z,3.90
2023-03-27T01:19:29.412Z,3.90
2023-03-27T01:22:17.056Z,3.70
2023-03-27T01:25:04.481Z,4.50
2023-03-27T01:27:58.768Z,6.30
2023-03-27T01:30:35.238Z,4.90
2023-03-27T01:33:22.050Z,4.40
2023-03-27T01:35:59.873Z,7.10
2023-03-27T01:38:44.923Z,4.20
2023-03-27T01:41:19.757Z,5.10
2023-03-27T01:43:58.814Z,5.50
2023-03-27T01:46:42.036Z,6.10
2023-03-27T01:49:15.719Z,5.00
2023-03-27T01:52:05.099Z,3.90
2023-03-27T01:54:35.455Z,4.90
2023-03-27T01:57:22.639Z,3.70
2023-03-27T02:00:19.469Z,3.50
2023-03-27T02:03:27.190Z,2.90
2023-03-27T02:06:02.855Z,3.40
2023-03-27T02:08:42.793Z,4.40
2023-03-27T02:11:21.935Z,4.50
2023-03-27T02:13:52.608Z,3.90
2023-03-27T02:16:26.931Z,3.10
2023-03-27T02:19:08.421Z,3.80
2023-03-27T02:21:37.988Z,3.70
2023-03-27T02:24:06.479Z,2.10
2023-03-27T02:26:35.455Z,5.70
2023-03-27T02:29:55.141Z,3.70
2023-03-27T02:32:32.677Z,3.40
2023-03-27T02:35:19.035Z,3.10
2023-03-27T02:38:17.725Z,3.00
2023-03-27T02:41:16.488Z,4.70
2023-03-27T02:44:23.609Z,3.60
2023-03-27T02:47:02.847Z,4.20
2023-03-27T02:49:46.482Z,3.40
2023-03-27T02:52:19.575Z,2.30
2023-03-27T02:55:06.535Z,2.60
2023-03-27T02:57:40.322Z,4.90
2023-03-27T03:00:28.110Z,2.70
2023-03-27T03:03:28.289Z,5.30
2023-03-27T03:06:11.524Z,2.40
2023-03-27T03:08:41.410Z,2.70
2023-03-27T03:11:12.209Z,5.50
2023-03-27T03:13:50.163Z,2.90
2023-03-27T03:18:49.512Z,2.80
2023-03-27T03:21:17.954Z,4.50
2023-03-27T03:23:57.520Z,3.20
2023-03-27T03:26:32.501Z,3.40
2023-03-27T03:29:02.770Z,3.00
2023-03-27T03:31:43.611Z,3.00
2023-03-27T03:34:16.769Z,3.40
2023-03-27T03:36:49.828Z,2.30
2023-03-27T03:39:25.266Z,3.70
2023-03-27T03:41:55.490Z,3.30
2023-03-27T03:44:23.976Z,2.60
2023-03-27T03:46:52.861Z,4.50
2023-03-27T03:49:23.295Z,2.80
2023-03-27T03:52:04.447Z,3.90
2023-03-27T03:54:34.182Z,4.50
2023-03-27T03:57:03.590Z,2.40
2023-03-27T03:59:34.224Z,6.00
2023-03-27T04:02:31.329Z,2.60
2023-03-27T04:05:10.577Z,3.40
2023-03-27T04:07:40.432Z,3.10
2023-03-27T04:10:23.556Z,2.40
2023-03-27T04:12:52.857Z,4.90
2023-03-27T04:15:30.259Z,4.00
2023-03-27T04:18:01.715Z,2.50
2023-03-27T04:20:34.962Z,4.10
2023-03-27T04:23:05.838Z,3.30
2023-03-27T04:25:38.319Z,2.80
2023-03-27T04:28:07.015Z,4.50
2023-03-27T04:30:39.491Z,3.30
2023-03-27T04:33:30.586Z,3.10
2023-03-27T04:36:09.291Z,2.50
2023-03-27T04:38:48.172Z,4.40
2023-03-27T04:41:22.677Z,2.30
2023-03-27T04:43:51.267Z,3.70
2023-03-27T04:46:19.885Z,2.60
2023-03-27T04:48:56.842Z,3.50
2023-03-27T04:54:20.226Z,3.30
2023-03-27T04:56:50.783Z,2.80
2023-03-27T04:59:19.241Z,3.10
2023-03-27T05:01:54.591Z,4.20
2023-03-27T05:04:43.760Z,2.80
2023-03-27T05:07:20.225Z,3.70
2023-03-27T05:09:49.522Z,3.10
2023-03-27T05:12:18.107Z,4.20
2023-03-27T05:14:54.272Z,4.00
2023-03-27T05:17:44.177Z,4.20
2023-03-27T05:20:19.602Z,4.90
2023-03-27T05:22:49.642Z,6.10
2023-03-27T05:25:28.237Z,4.10
2023-03-27T05:27:57.235Z,5.10
2023-03-27T05:30:28.875Z,3.80
2023-03-27T05:33:09.213Z,5.50
2023-03-27T05:35:47.075Z,4.00
2023-03-27T05:38:16.460Z,4.30
2023-03-27T05:40:58.118Z,5.70
2023-03-27T05:43:27.449Z,5.10
2023-03-27T05:45:55.772Z,4.60
2023-03-27T05:48:26.467Z,5.70
2023-03-27T05:50:59.362Z,4.50
2023-03-27T05:53:29.047Z,4.30
2023-03-27T05:56:20.905Z,4.10
2023-03-27T05:58:59.524Z,5.40
2023-03-27T06:01:28.331Z,4.00
2023-03-27T06:03:58.853Z,5.50
2023-03-27T06:06:34.400Z,4.70
2023-03-27T06:09:04.011Z,5.70
2023-03-27T06:11:32.990Z,5.50
2023-03-27T06:14:01.777Z,5.40
2023-03-27T06:16:43.181Z,4.70
2023-03-27T06:19:39.513Z,4.30
2023-03-27T06:22:09.322Z,6.60
2023-03-27T06:24:39.546Z,4.50
2023-03-27T06:27:10.798Z,4.60
2023-03-27T06:29:40.811Z,4.50
2023-03-27T06:32:09.909Z,4.00
2023-03-27T06:34:44.033Z,3.80
2023-03-27T06:37:34.115Z,6.00
2023-03-27T06:40:04.768Z,5.30
2023-03-27T06:42:33.948Z,3.50
2023-03-27T06:45:23.745Z,6.10
2023-03-27T06:48:15.360Z,3.80
2023-03-27T06:50:52.012Z,3.90
2023-03-27T06:55:55.193Z,4.70
2023-03-27T06:58:24.779Z,4.10
2023-03-27T07:00:53.970Z,3.90
2023-03-27T07:03:23.264Z,3.60
2023-03-27T07:06:27.386Z,2.30
2023-03-27T07:09:01.408Z,3.00
2023-03-27T07:11:32.085Z,3.40
2023-03-27T07:14:04.408Z,4.20
2023-03-27T07:16:33.361Z,3.80
2023-03-27T07:19:10.179Z,3.20
2023-03-27T07:21:44.090Z,3.40
2023-03-27T07:24:12.580Z,3.10
2023-03-27T07:26:41.980Z,3.00
2023-03-27T07:29:34.392Z,2.40
2023-03-27T07:32:09.125Z,1.90
2023-03-27T07:34:45.117Z,2.70
2023-03-27T07:37:38.269Z,2.60
2023-03-27T07:40:37.259Z,1.50
2023-03-27T07:46:15.049Z,2.90
2023-03-27T07:48:43.706Z,3.80
2023-03-27T07:51:17.935Z,4.30
2023-03-27T07:53:49.474Z,2.40
2023-03-27T07:56:23.740Z,2.80
2023-03-27T07:59:07.947Z,3.50
2023-03-27T08:01:36.635Z,2.60
2023-03-27T08:04:05.991Z,3.00
2023-03-27T08:06:35.451Z,2.20
2023-03-27T08:09:05.997Z,2.30
2023-03-27T08:11:41.628Z,3.70
2023-03-27T08:14:10.319Z,2.90
2023-03-27T08:16:45.067Z,4.30
2023-03-27T08:19:15.475Z,2.40
2023-03-27T08:21:47.553Z,3.00
2023-03-27T08:24:18.490Z,2.50
2023-03-27T08:27:04.272Z,2.80
2023-03-27T08:29:33.064Z,2.40
2023-03-27T08:32:03.498Z,2.60
2023-03-27T08:34:31.999Z,3.50
2023-03-27T08:37:00.563Z,2.40
2023-03-27T08:39:39.082Z,1.90
2023-03-27T08:42:13.271Z,2.70
2023-03-27T08:44:42.294Z,2.60
2023-03-27T08:47:27.201Z,2.60
2023-03-27T08:50:01.279Z,2.80
2023-03-27T08:52:37.466Z,2.30
2023-03-27T08:55:12.582Z,2.30
2023-03-27T08:57:50.600Z,1.90
2023-03-27T09:00:25.758Z,1.70
2023-03-27T09:03:23.284Z,3.50
2023-03-27T09:05:58.591Z,2.10
2023-03-27T09:08:32.562Z,2.90
2023-03-27T09:11:10.250Z,1.80
2023-03-27T09:13:47.845Z,1.80
2023-03-27T09:16:18.950Z,2.30
2023-03-27T09:18:51.261Z,2.10
2023-03-27T09:21:37.879Z,2.20
2023-03-27T09:24:27.464Z,1.40
2023-03-27T09:27:18.648Z,2.90
2023-03-27T09:30:15.517Z,3.00
2023-03-27T09:33:03.725Z,2.60
2023-03-27T09:35:33.403Z,2.50
2023-03-27T09:38:04.139Z,2.60
2023-03-27T09:40:48.977Z,2.70
2023-03-27T09:43:20.850Z,2.80
2023-03-27T09:45:51.160Z,2.10
2023-03-27T09:48:36.442Z,2.20
2023-03-27T09:51:39.960Z,2.30
2023-03-27T09:54:14.874Z,2.40
2023-03-27T09:57:02.052Z,2.20
2023-03-27T09:59:38.573Z,2.30
2023-03-27T10:02:38.356Z,3.00
2023-03-27T10:05:16.189Z,2.30
2023-03-27T10:07:46.235Z,2.30
2023-03-27T10:10:46.041Z,2.10
2023-03-27T10:13:44.616Z,2.80
2023-03-27T10:16:18.087Z,1.80
2023-03-27T10:18:57.225Z,2.70
2023-03-27T10:21:39.966Z,2.30
2023-03-27T10:24:17.970Z,1.60
2023-03-27T10:27:05.405Z,4.50
2023-03-27T10:29:36.131Z,2.80
2023-03-27T10:32:06.294Z,1.80
2023-03-27T10:34:52.865Z,2.90
2023-03-27T10:37:41.012Z,2.30
2023-03-27T10:40:57.280Z,2.70
2023-03-27T10:43:41.094Z,2.30
2023-03-27T10:46:12.280Z,2.90
2023-03-27T10:49:03.011Z,2.80
2023-03-27T10:51:46.533Z,1.70
2023-03-27T10:57:08.737Z,3.70
2023-03-27T10:59:44.770Z,2.70
2023-03-27T11:02:47.898Z,1.20
2023-03-27T11:05:21.155Z,2.10
2023-03-27T11:08:25.891Z,2.10
2023-03-27T11:10:55.769Z,1.80
2023-03-27T11:13:46.453Z,3.60
2023-03-27T11:16:41.460Z,2.10
2023-03-27T11:19:36.321Z,2.10
2023-03-27T11:22:40.435Z,1.90
2023-03-27T11:25:24.089Z,3.00
2023-03-27T11:28:01.774Z,1.30
2023-03-27T11:30:46.970Z,1.90
2023-03-27T11:33:32.533Z,1.90
2023-03-27T11:36:07.204Z,1.90
2023-03-27T11:39:17.225Z,2.60
2023-03-27T11:41:51.753Z,2.50
2023-03-27T11:44:21.871Z,2.80
2023-03-27T11:47:44.151Z,4.40
2023-03-27T11:50:29.210Z,3.30
2023-03-27T11:53:17.032Z,2.90
2023-03-27T11:56:15.735Z,3.90
2023-03-27T11:59:19.953Z,4.20
2023-03-27T12:02:16.653Z,2.80
2023-03-27T12:04:58.084Z,2.70
2023-03-27T12:07:59.334Z,2.80
2023-03-27T12:10:33.414Z,2.20
2023-03-27T12:13:18.868Z,2.30
2023-03-27T12:16:09.151Z,4.60
2023-03-27T12:19:27.796Z,3.80
2023-03-27T12:22:23.549Z,3.50
2023-03-27T12:25:05.367Z,2.20
2023-03-27T12:28:04.318Z,3.20
2023-03-27T12:31:03.211Z,2.20
2023-03-27T12:33:45.108Z,2.30
2023-03-27T12:36:16.773Z,2.60
2023-03-27T12:38:46.076Z,3.50
2023-03-27T12:41:26.847Z,1.30
2023-03-27T12:44:20.111Z,2.80
2023-03-27T12:47:24.337Z,2.40
2023-03-27T12:50:01.414Z,1.80
2023-03-27T12:52:38.709Z,2.80
2023-03-27T12:55:19.486Z,1.10
2023-03-27T12:58:02.023Z,2.20
2023-03-27T13:01:00.686Z,2.80
2023-03-27T13:04:12.590Z,2.80
2023-03-27T13:07:12.001Z,2.10
2023-03-27T13:10:12.949Z,2.70
2023-03-27T13:13:19.933Z,2.50
2023-03-27T13:16:17.063Z,2.90
2023-03-27T13:19:06.690Z,2.70
2023-03-27T13:22:02.497Z,1.80
2023-03-27T13:24:54.752Z,2.20
2023-03-27T13:27:52.728Z,1.80
2023-03-27T13:30:40.656Z,2.00
2023-03-27T13:33:28.147Z,1.50
2023-03-27T13:36:00.604Z,2.00
2023-03-27T13:38:54.564Z,1.90
2023-03-27T13:41:45.063Z,1.50
2023-03-27T13:44:45.818Z,2.80
2023-03-27T13:47:33.951Z,3.20
2023-03-27T13:50:24.947Z,2.30
2023-03-27T13:53:16.783Z,2.20
2023-03-27T13:56:23.458Z,2.00
2023-03-27T13:59:37.816Z,1.90
2023-03-27T14:02:42.188Z,2.70
2023-03-27T14:05:17.796Z,3.80
2023-03-27T14:07:56.416Z,4.30
2023-03-27T14:10:48.761Z,3.80
2023-03-27T14:13:27.484Z,3.10
2023-03-27T14:16:04.366Z,3.10
2023-03-27T14:19:04.281Z,4.80
2023-03-27T14:22:08.814Z,3.50
2023-03-27T14:24:54.812Z,4.00
2023-03-27T14:27:34.757Z,3.80
2023-03-27T14:33:06.722Z,4.30
2023-03-27T14:35:38.746Z,5.00
2023-03-27T14:38:34.871Z,4.80
2023-03-27T14:41:08.043Z,5.10
2023-03-27T14:43:49.557Z,4.90
2023-03-27T14:46:20.186Z,6.00
2023-03-27T14:48:58.143Z,5.60
2023-03-27T14:51:42.244Z,5.70
2023-03-27T14:54:27.069Z,4.60
2023-03-27T14:57:03.292Z,5.20
2023-03-27T14:59:39.230Z,5.90
2023-03-27T15:02:22.336Z,6.30
2023-03-27T15:05:03.842Z,4.20
2023-03-27T15:07:36.312Z,6.50
2023-03-27T15:10:28.138Z,4.90
2023-03-27T15:13:10.866Z,4.20
2023-03-27T15:15:44.287Z,7.20
2023-03-27T15:18:31.235Z,4.20
2023-03-27T15:21:04.859Z,3.60
2023-03-27T15:24:10.792Z,5.60
2023-03-27T15:26:40.861Z,5.10
2023-03-27T15:29:14.255Z,4.20
2023-03-27T15:31:47.140Z,4.90
2023-03-27T15:34:23.617Z,3.80
2023-03-27T15:36:57.039Z,5.10
2023-03-27T15:39:26.939Z,6.10
2023-03-27T15:42:14.357Z,7.60
2023-03-27T15:44:43.453Z,18.90
2023-03-27T15:47:26.202Z,24.40
2023-03-27T15:50:21.174Z,26.90
2023-03-27T15:52:52.028Z,22.90
2023-03-27T15:55:39.253Z,17.50
2023-03-27T15:58:30.563Z,15.80
2023-03-27T16:01:01.622Z,12.80
2023-03-27T16:03:31.499Z,8.80
2023-03-27T16:08:32.626Z,5.60
2023-03-27T16:11:01.464Z,6.30
2023-03-27T16:13:52.173Z,6.10
2023-03-27T16:16:23.140Z,5.30
2023-03-27T16:18:52.726Z,4.30
2023-03-27T16:21:23.361Z,5.70
2023-03-27T16:23:52.048Z,4.40
2023-03-27T16:26:40.396Z,5.20
2023-03-27T16:29:09.851Z,7.40
2023-03-27T16:31:38.445Z,5.00
2023-03-27T16:34:12.181Z,5.40
2023-03-27T16:36:51.751Z,5.70
2023-03-27T16:39:20.939Z,6.60
2023-03-27T16:41:49.425Z,7.90
2023-03-27T16:44:22.409Z,7.90
2023-03-27T16:46:51.117Z,7.10
2023-03-27T16:49:19.715Z,9.10
2023-03-27T16:51:48.368Z,9.60
2023-03-27T16:54:17.055Z,11.10
2023-03-27T16:56:45.773Z,10.90
2023-03-27T16:59:16.277Z,9.90
2023-03-27T17:01:44.760Z,11.50
2023-03-27T17:04:13.781Z,9.40
2023-03-27T17:06:42.543Z,8.60
2023-03-27T17:11:54.869Z,11.50
2023-03-27T17:14:23.558Z,10.50
2023-03-27T17:16:52.082Z,8.50
2023-03-27T17:19:21.034Z,8.60
2023-03-27T17:21:51.364Z,9.00
2023-03-27T17:24:20.061Z,9.60
2023-03-27T17:26:48.432Z,9.60
2023-03-27T17:29:20.808Z,12.50
2023-03-27T17:31:49.424Z,11.10
2023-03-27T17:34:19.820Z,8.70
2023-03-27T17:36:54.294Z,7.30
2023-03-27T17:39:25.286Z,6.90
2023-03-27T17:41:54.187Z,7.90
2023-03-27T17:44:27.680Z,3.70
2023-03-27T17:46:56.401Z,3.30
2023-03-27T17:49:25.259Z,3.20
2023-03-27T17:51:53.642Z,4.30
2023-03-27T17:54:22.533Z,4.30
2023-03-27T17:59:21.210Z,4.50
2023-03-27T18:01:51.001Z,3.50
2023-03-27T18:04:20.154Z,3.60
2023-03-27T18:06:48.633Z,3.80
2023-03-27T18:09:17.015Z,5.30
2023-03-27T18:11:47.555Z,3.50
2023-03-27T18:14:18.286Z,3.00
2023-03-27T18:16:47.577Z,3.70
2023-03-27T18:19:16.681Z,5.40
2023-03-27T18:21:45.576Z,3.90
2023-03-27T18:24:14.266Z,2.60
2023-03-27T18:26:43.265Z,5.00
2023-03-27T18:29:18.400Z,4.80
2023-03-27T18:31:47.460Z,4.20
2023-03-27T18:34:15.907Z,3.30
2023-03-27T18:39:19.700Z,4.80
2023-03-27T18:41:47.959Z,4.40
2023-03-27T18:44:17.076Z,3.70
2023-03-27T18:46:45.456Z,4.50
2023-03-27T18:49:24.360Z,3.20
2023-03-27T18:54:23.604Z,3.30
2023-03-27T18:56:52.427Z,3.00
2023-03-27T18:59:21.080Z,5.10
2023-03-27T19:01:50.235Z,2.70
2023-03-27T19:04:19.892Z,2.50
2023-03-27T19:06:48.278Z,1.90
2023-03-27T19:09:16.759Z,3.10
2023-03-27T19:11:45.237Z,4.40
2023-03-27T19:14:52.225Z,3.40
2023-03-27T19:17:47.859Z,4.70
2023-03-27T19:20:35.916Z,4.50
2023-03-27T19:23:17.785Z,3.40
2023-03-27T19:25:51.939Z,3.60
2023-03-27T19:28:21.722Z,3.80
2023-03-27T19:30:53.082Z,3.20
2023-03-27T19:33:22.164Z,3.20
2023-03-27T19:35:53.964Z,3.60
2023-03-27T19:38:22.459Z,3.40
2023-03-27T19:40:51.011Z,3.90
2023-03-27T19:43:21.733Z,2.60
2023-03-27T19:46:14.263Z,3.70
2023-03-27T19:48:45.842Z,4.60
2023-03-27T19:51:23.552Z,4.70
2023-03-27T19:53:53.754Z,3.10
2023-03-27T19:56:24.287Z,3.30
2023-03-27T19:58:53.177Z,4.60
2023-03-27T20:01:22.960Z,4.40
2023-03-27T20:03:51.700Z,6.30
2023-03-27T20:06:22.207Z,3.80
2023-03-27T20:08:53.762Z,4.30
2023-03-27T20:11:23.270Z,4.40
2023-03-27T20:13:56.661Z,6.20
2023-03-27T20:16:27.727Z,4.40
2023-03-27T20:19:05.720Z,7.00
2023-03-27T20:21:39.681Z,4.40
2023-03-27T20:24:11.665Z,4.60
2023-03-27T20:26:42.267Z,5.90
2023-03-27T20:29:18.425Z,4.60
2023-03-27T20:31:48.438Z,6.20
2023-03-27T20:34:20.071Z,4.70
2023-03-27T20:36:53.364Z,4.60
2023-03-27T20:39:48.370Z,4.30
2023-03-27T20:42:19.003Z,4.40
2023-03-27T20:44:55.375Z,4.40
2023-03-27T20:47:24.598Z,5.20
2023-03-27T20:49:53.060Z,6.10
2023-03-27T20:52:23.041Z,4.40
2023-03-27T20:54:51.976Z,6.50
2023-03-27T20:57:23.020Z,4.50
2023-03-27T20:59:53.136Z,5.20
2023-03-27T21:02:23.205Z,5.10
2023-03-27T21:04:51.839Z,6.70
2023-03-27T21:07:20.834Z,5.20
2023-03-27T21:09:54.030Z,5.70
2023-03-27T21:12:22.511Z,7.40
2023-03-27T21:14:51.095Z,5.40
2023-03-27T21:17:19.991Z,6.60
2023-03-27T21:19:48.679Z,7.00
2023-03-27T21:22:23.937Z,7.10
2023-03-27T21:24:52.709Z,7.20
2023-03-27T21:27:21.602Z,4.80
2023-03-27T21:29:56.541Z,5.60
2023-03-27T21:32:26.156Z,7.80
2023-03-27T21:34:54.630Z,6.00
2023-03-27T21:37:23.113Z,4.90
2023-03-27T21:39:51.497Z,5.60
2023-03-27T21:42:22.033Z,5.80
2023-03-27T21:44:55.648Z,5.70
2023-03-27T21:47:37.241Z,6.80
2023-03-27T21:50:13.587Z,6.00
2023-03-27T21:52:42.276Z,7.40
2023-03-27T21:55:11.892Z,7.20
2023-03-27T21:57:41.400Z,6.90
2023-03-27T22:00:10.597Z,6.60
2023-03-27T22:02:44.689Z,5.40
2023-03-27T22:05:13.399Z,7.30
2023-03-27T22:07:47.101Z,6.40
2023-03-27T22:10:16.100Z,5.60
2023-03-27T22:12:44.985Z,5.80
2023-03-27T22:15:14.704Z,5.10
2023-03-27T22:17:43.726Z,5.90
2023-03-27T22:20:12.282Z,4.50
2023-03-27T22:22:41.073Z,6.90
2023-03-27T22:25:10.275Z,5.40
2023-03-27T22:27:39.798Z,6.90
2023-03-27T22:30:14.626Z,5.50
2023-03-27T22:32:44.117Z,5.50
2023-03-27T22:35:17.736Z,6.30
2023-03-27T22:37:46.732Z,4.30
2023-03-27T22:40:15.201Z,4.40
2023-03-27T22:42:44.501Z,6.40
2023-03-27T22:45:13.704Z,5.10
2023-03-27T22:47:45.423Z,7.70
2023-03-27T22:50:16.201Z,5.30
2023-03-27T22:52:44.682Z,6.40
2023-03-27T22:55:13.269Z,5.20
2023-03-27T22:57:41.854Z,6.70
2023-03-27T23:00:16.601Z,5.60
2023-03-27T23:02:47.232Z,5.80
2023-03-27T23:05:15.905Z,7.60
2023-03-27T23:07:45.719Z,6.30
2023-03-27T23:10:14.819Z,7.10
2023-03-27T23:12:43.301Z,4.80
2023-03-27T23:15:12.199Z,5.30
2023-03-27T23:17:41.161Z,5.10
2023-03-27T23:20:13.370Z,4.90
2023-03-27T23:22:42.357Z,12.70
2023-03-27T23:25:11.357Z,6.00
2023-03-27T23:27:41.779Z,6.30
2023-03-27T23:30:11.439Z,4.90
2023-03-27T23:32:41.321Z,5.60
2023-03-27T23:35:11.427Z,6.60
2023-03-27T23:37:39.911Z,7.00
2023-03-27T23:40:09.457Z,6.70
2023-03-27T23:42:38.414Z,4.90
2023-03-27T23:45:12.069Z,5.20
2023-03-27T23:47:42.467Z,6.00
2023-03-27T23:50:11.140Z,5.00
2023-03-27T23:52:41.458Z,6.20
2023-03-27T23:55:09.853Z,4.50
2023-03-27T23:57:38.837Z,6.10
